sensor_id;sensor_type;location;lat;lon;timestamp;P1;durP1;ratioP1;P2;durP2;ratioP2
25467;SDS011;13384;24.794;110.498;2023-02-12T00:01:10;9.40;;;6.38;;
25467;SDS011;13384;24.794;110.498;2023-02-12T00:03:42;11.35;;;6.75;;
25467;SDS011;13384;24.794;110.498;2023-02-12T00:06:18;8.20;;;5.80;;
25467;SDS011;13384;24.794;110.498;2023-02-12T00:08:51;11.52;;;6.63;;
25467;SDS011;13384;24.794;110.498;2023-02-12T00:11:27;9.07;;;6.35;;
25467;SDS011;13384;24.794;110.498;2023-02-12T00:14:18;9.10;;;6.43;;
25467;SDS011;13384;24.794;110.498;2023-02-12T00:17:09;12.35;;;6.60;;
25467;SDS011;13384;24.794;110.498;2023-02-12T00:19:46;9.65;;;5.95;;
25467;SDS011;13384;24.794;110.498;2023-02-12T00:22:41;9.90;;;6.30;;
25467;SDS011;13384;24.794;110.498;2023-02-12T00:25:12;10.88;;;6.55;;
25467;SDS011;13384;24.794;110.498;2023-02-12T00:27:43;11.07;;;6.40;;
25467;SDS011;13384;24.794;110.498;2023-02-12T00:30:14;10.77;;;6.97;;
25467;SDS011;13384;24.794;110.498;2023-02-12T00:32:51;10.60;;;6.53;;
25467;SDS011;13384;24.794;110.498;2023-02-12T00:35:56;12.55;;;7.18;;
25467;SDS011;13384;24.794;110.498;2023-02-12T00:38:36;8.80;;;6.28;;
25467;SDS011;13384;24.794;110.498;2023-02-12T00:41:16;11.52;;;7.00;;
25467;SDS011;13384;24.794;110.498;2023-02-12T00:43:49;10.13;;;6.57;;
25467;SDS011;13384;24.794;110.498;2023-02-12T00:46:22;10.82;;;6.63;;
25467;SDS011;13384;24.794;110.498;2023-02-12T00:48:53;10.60;;;6.40;;
25467;SDS011;13384;24.794;110.498;2023-02-12T00:51:24;11.77;;;6.53;;
25467;SDS011;13384;24.794;110.498;2023-02-12T00:53:56;12.13;;;7.13;;
25467;SDS011;13384;24.794;110.498;2023-02-12T00:56:28;14.68;;;8.25;;
25467;SDS011;13384;24.794;110.498;2023-02-12T00:58:59;12.68;;;7.50;;
25467;SDS011;13384;24.794;110.498;2023-02-12T01:01:30;13.15;;;7.75;;
25467;SDS011;13384;24.794;110.498;2023-02-12T01:04:03;14.50;;;9.13;;
25467;SDS011;13384;24.794;110.498;2023-02-12T01:06:34;9.73;;;6.57;;
25467;SDS011;13384;24.794;110.498;2023-02-12T01:09:06;10.50;;;7.38;;
25467;SDS011;13384;24.794;110.498;2023-02-12T01:11:38;11.82;;;6.95;;
25467;SDS011;13384;24.794;110.498;2023-02-12T01:14:09;15.55;;;8.23;;
25467;SDS011;13384;24.794;110.498;2023-02-12T01:16:49;16.00;;;9.63;;
25467;SDS011;13384;24.794;110.498;2023-02-12T01:19:21;19.25;;;10.43;;
25467;SDS011;13384;24.794;110.498;2023-02-12T01:21:52;13.73;;;8.77;;
25467;SDS011;13384;24.794;110.498;2023-02-12T01:24:43;12.32;;;7.00;;
25467;SDS011;13384;24.794;110.498;2023-02-12T01:27:21;12.13;;;7.72;;
25467;SDS011;13384;24.794;110.498;2023-02-12T01:29:55;12.13;;;7.78;;
25467;SDS011;13384;24.794;110.498;2023-02-12T01:32:26;9.88;;;7.00;;
25467;SDS011;13384;24.794;110.498;2023-02-12T01:35:09;11.95;;;7.68;;
25467;SDS011;13384;24.794;110.498;2023-02-12T01:37:47;12.70;;;7.65;;
25467;SDS011;13384;24.794;110.498;2023-02-12T01:40:19;13.43;;;7.90;;
25467;SDS011;13384;24.794;110.498;2023-02-12T01:42:51;14.40;;;8.93;;
25467;SDS011;13384;24.794;110.498;2023-02-12T01:45:35;14.38;;;8.10;;
25467;SDS011;13384;24.794;110.498;2023-02-12T01:48:15;14.75;;;8.68;;
25467;SDS011;13384;24.794;110.498;2023-02-12T01:50:48;14.77;;;8.18;;
25467;SDS011;13384;24.794;110.498;2023-02-12T01:53:40;13.63;;;7.82;;
25467;SDS011;13384;24.794;110.498;2023-02-12T01:56:15;15.65;;;9.88;;
25467;SDS011;13384;24.794;110.498;2023-02-12T01:58:48;16.42;;;9.68;;
25467;SDS011;13384;24.794;110.498;2023-02-12T02:01:26;12.82;;;8.18;;
25467;SDS011;13384;24.794;110.498;2023-02-12T02:04:01;12.95;;;8.10;;
25467;SDS011;13384;24.794;110.498;2023-02-12T02:06:48;13.43;;;8.00;;
25467;SDS011;13384;24.794;110.498;2023-02-12T02:09:27;15.32;;;8.23;;
25467;SDS011;13384;24.794;110.498;2023-02-12T02:12:01;12.65;;;7.78;;
25467;SDS011;13384;24.794;110.498;2023-02-12T02:14:51;10.50;;;7.50;;
25467;SDS011;13384;24.794;110.498;2023-02-12T02:20:56;14.15;;;8.43;;
25467;SDS011;13384;24.794;110.498;2023-02-12T02:23:29;14.75;;;8.15;;
25467;SDS011;13384;24.794;110.498;2023-02-12T02:35:12;13.38;;;7.97;;
25467;SDS011;13384;24.794;110.498;2023-02-12T02:41:33;15.57;;;8.38;;
25467;SDS011;13384;24.794;110.498;2023-02-12T02:44:15;12.73;;;8.35;;
25467;SDS011;13384;24.794;110.498;2023-02-12T02:46:50;12.45;;;7.95;;
25467;SDS011;13384;24.794;110.498;2023-02-12T02:49:31;12.30;;;7.72;;
25467;SDS011;13384;24.794;110.498;2023-02-12T02:52:21;12.93;;;7.90;;
25467;SDS011;13384;24.794;110.498;2023-02-12T02:55:10;10.80;;;7.45;;
25467;SDS011;13384;24.794;110.498;2023-02-12T02:58:08;15.48;;;8.98;;
25467;SDS011;13384;24.794;110.498;2023-02-12T03:00:47;13.52;;;7.93;;
25467;SDS011;13384;24.794;110.498;2023-02-12T03:06:01;12.73;;;7.85;;
25467;SDS011;13384;24.794;110.498;2023-02-12T03:08:53;13.45;;;7.90;;
25467;SDS011;13384;24.794;110.498;2023-02-12T03:11:28;12.52;;;7.65;;
25467;SDS011;13384;24.794;110.498;2023-02-12T03:14:28;12.85;;;7.10;;
25467;SDS011;13384;24.794;110.498;2023-02-12T03:17:30;13.68;;;8.15;;
25467;SDS011;13384;24.794;110.498;2023-02-12T03:20:25;12.77;;;7.22;;
25467;SDS011;13384;24.794;110.498;2023-02-12T03:23:13;10.57;;;7.55;;
25467;SDS011;13384;24.794;110.498;2023-02-12T03:25:52;12.52;;;7.30;;
25467;SDS011;13384;24.794;110.498;2023-02-12T03:29:06;12.63;;;7.55;;
25467;SDS011;13384;24.794;110.498;2023-02-12T03:40:14;12.10;;;7.65;;
25467;SDS011;13384;24.794;110.498;2023-02-12T03:46:33;12.15;;;7.75;;
25467;SDS011;13384;24.794;110.498;2023-02-12T03:52:32;13.80;;;8.02;;
25467;SDS011;13384;24.794;110.498;2023-02-12T03:55:05;11.27;;;7.07;;
25467;SDS011;13384;24.794;110.498;2023-02-12T03:57:41;11.93;;;7.28;;
25467;SDS011;13384;24.794;110.498;2023-02-12T04:00:17;12.52;;;8.07;;
25467;SDS011;13384;24.794;110.498;2023-02-12T04:02:54;12.93;;;7.80;;
25467;SDS011;13384;24.794;110.498;2023-02-12T04:05:28;17.15;;;8.82;;
25467;SDS011;13384;24.794;110.498;2023-02-12T04:08:08;11.60;;;7.65;;
25467;SDS011;13384;24.794;110.498;2023-02-12T04:20:10;26.58;;;13.85;;
25467;SDS011;13384;24.794;110.498;2023-02-12T04:25:52;35.42;;;19.05;;
25467;SDS011;13384;24.794;110.498;2023-02-12T04:34:56;32.55;;;18.58;;
25467;SDS011;13384;24.794;110.498;2023-02-12T04:40:55;37.22;;;19.75;;
25467;SDS011;13384;24.794;110.498;2023-02-12T04:43:42;127.72;;;50.22;;
25467;SDS011;13384;24.794;110.498;2023-02-12T04:46:14;65.38;;;30.08;;
25467;SDS011;13384;24.794;110.498;2023-02-12T04:48:53;46.30;;;24.00;;
25467;SDS011;13384;24.794;110.498;2023-02-12T04:51:27;38.10;;;21.00;;
25467;SDS011;13384;24.794;110.498;2023-02-12T04:53:58;39.40;;;21.70;;
25467;SDS011;13384;24.794;110.498;2023-02-12T04:56:31;46.95;;;22.05;;
25467;SDS011;13384;24.794;110.498;2023-02-12T04:59:03;36.75;;;20.92;;
25467;SDS011;13384;24.794;110.498;2023-02-12T05:01:35;34.80;;;20.25;;
25467;SDS011;13384;24.794;110.498;2023-02-12T05:04:09;38.55;;;21.48;;
25467;SDS011;13384;24.794;110.498;2023-02-12T05:06:46;34.13;;;19.27;;
25467;SDS011;13384;24.794;110.498;2023-02-12T05:09:19;40.00;;;21.08;;
25467;SDS011;13384;24.794;110.498;2023-02-12T05:12:22;44.70;;;20.98;;
25467;SDS011;13384;24.794;110.498;2023-02-12T05:15:14;42.58;;;18.65;;
25467;SDS011;13384;24.794;110.498;2023-02-12T05:18:04;30.77;;;18.95;;
25467;SDS011;13384;24.794;110.498;2023-02-12T05:20:40;32.25;;;19.25;;
25467;SDS011;13384;24.794;110.498;2023-02-12T05:26:05;47.67;;;25.02;;
25467;SDS011;13384;24.794;110.498;2023-02-12T05:28:38;47.53;;;26.33;;
25467;SDS011;13384;24.794;110.498;2023-02-12T05:31:12;56.00;;;26.98;;
25467;SDS011;13384;24.794;110.498;2023-02-12T05:34:18;51.00;;;28.27;;
25467;SDS011;13384;24.794;110.498;2023-02-12T05:36:51;60.30;;;29.15;;
25467;SDS011;13384;24.794;110.498;2023-02-12T05:39:22;53.90;;;27.63;;
25467;SDS011;13384;24.794;110.498;2023-02-12T05:42:02;54.13;;;27.35;;
25467;SDS011;13384;24.794;110.498;2023-02-12T05:44:39;51.47;;;26.58;;
25467;SDS011;13384;24.794;110.498;2023-02-12T05:47:11;51.45;;;26.63;;
25467;SDS011;13384;24.794;110.498;2023-02-12T05:49:42;49.92;;;28.27;;
25467;SDS011;13384;24.794;110.498;2023-02-12T05:52:31;64.00;;;29.17;;
25467;SDS011;13384;24.794;110.498;2023-02-12T05:55:29;54.35;;;27.67;;
25467;SDS011;13384;24.794;110.498;2023-02-12T05:58:09;63.47;;;26.77;;
25467;SDS011;13384;24.794;110.498;2023-02-12T06:01:01;62.10;;;26.77;;
25467;SDS011;13384;24.794;110.498;2023-02-12T06:03:40;66.88;;;28.00;;
25467;SDS011;13384;24.794;110.498;2023-02-12T06:06:14;54.90;;;27.50;;
25467;SDS011;13384;24.794;110.498;2023-02-12T06:09:04;56.75;;;27.05;;
25467;SDS011;13384;24.794;110.498;2023-02-12T06:11:58;50.75;;;24.77;;
25467;SDS011;13384;24.794;110.498;2023-02-12T06:14:40;53.35;;;27.60;;
25467;SDS011;13384;24.794;110.498;2023-02-12T06:17:11;53.53;;;27.83;;
25467;SDS011;13384;24.794;110.498;2023-02-12T06:19:43;50.83;;;26.13;;
25467;SDS011;13384;24.794;110.498;2023-02-12T06:22:34;48.83;;;24.50;;
25467;SDS011;13384;24.794;110.498;2023-02-12T06:25:06;47.92;;;25.83;;
25467;SDS011;13384;24.794;110.498;2023-02-12T06:27:40;44.88;;;24.90;;
25467;SDS011;13384;24.794;110.498;2023-02-12T06:30:13;43.78;;;23.85;;
25467;SDS011;13384;24.794;110.498;2023-02-12T06:32:48;44.80;;;24.20;;
25467;SDS011;13384;24.794;110.498;2023-02-12T06:35:34;50.63;;;23.35;;
25467;SDS011;13384;24.794;110.498;2023-02-12T06:40:37;42.40;;;22.88;;
25467;SDS011;13384;24.794;110.498;2023-02-12T06:43:19;40.75;;;23.00;;
25467;SDS011;13384;24.794;110.498;2023-02-12T06:45:50;52.50;;;23.30;;
25467;SDS011;13384;24.794;110.498;2023-02-12T06:48:29;46.83;;;24.08;;
25467;SDS011;13384;24.794;110.498;2023-02-12T06:51:07;44.30;;;23.77;;
25467;SDS011;13384;24.794;110.498;2023-02-12T06:53:44;45.35;;;24.30;;
25467;SDS011;13384;24.794;110.498;2023-02-12T06:56:17;39.55;;;22.17;;
25467;SDS011;13384;24.794;110.498;2023-02-12T06:59:02;41.60;;;22.60;;
25467;SDS011;13384;24.794;110.498;2023-02-12T07:01:36;39.75;;;23.13;;
25467;SDS011;13384;24.794;110.498;2023-02-12T07:04:07;40.35;;;22.92;;
25467;SDS011;13384;24.794;110.498;2023-02-12T07:06:40;51.00;;;26.30;;
25467;SDS011;13384;24.794;110.498;2023-02-12T07:09:12;46.53;;;24.02;;
25467;SDS011;13384;24.794;110.498;2023-02-12T07:11:43;45.17;;;23.77;;
25467;SDS011;13384;24.794;110.498;2023-02-12T07:14:17;43.08;;;21.83;;
25467;SDS011;13384;24.794;110.498;2023-02-12T07:16:48;46.60;;;25.98;;
25467;SDS011;13384;24.794;110.498;2023-02-12T07:22:24;43.90;;;23.02;;
25467;SDS011;13384;24.794;110.498;2023-02-12T07:24:59;39.50;;;23.55;;
25467;SDS011;13384;24.794;110.498;2023-02-12T07:27:50;36.45;;;22.40;;
25467;SDS011;13384;24.794;110.498;2023-02-12T07:30:24;39.92;;;23.55;;
25467;SDS011;13384;24.794;110.498;2023-02-12T07:33:16;41.00;;;23.20;;
25467;SDS011;13384;24.794;110.498;2023-02-12T07:35:47;41.10;;;22.67;;
25467;SDS011;13384;24.794;110.498;2023-02-12T07:38:20;39.17;;;21.20;;
25467;SDS011;13384;24.794;110.498;2023-02-12T07:40:52;41.95;;;24.00;;
25467;SDS011;13384;24.794;110.498;2023-02-12T07:43:25;38.53;;;22.10;;
25467;SDS011;13384;24.794;110.498;2023-02-12T07:46:04;36.47;;;22.55;;
25467;SDS011;13384;24.794;110.498;2023-02-12T07:49:03;42.38;;;23.08;;
25467;SDS011;13384;24.794;110.498;2023-02-12T07:51:48;35.70;;;22.80;;
25467;SDS011;13384;24.794;110.498;2023-02-12T07:54:21;44.63;;;26.88;;
25467;SDS011;13384;24.794;110.498;2023-02-12T07:56:58;40.90;;;24.92;;
25467;SDS011;13384;24.794;110.498;2023-02-12T07:59:29;41.40;;;24.35;;
25467;SDS011;13384;24.794;110.498;2023-02-12T08:02:01;31.00;;;20.92;;
25467;SDS011;13384;24.794;110.498;2023-02-12T08:04:32;35.05;;;22.25;;
25467;SDS011;13384;24.794;110.498;2023-02-12T08:07:07;40.80;;;23.73;;
25467;SDS011;13384;24.794;110.498;2023-02-12T08:09:46;35.20;;;23.50;;
25467;SDS011;13384;24.794;110.498;2023-02-12T08:12:37;34.53;;;23.38;;
25467;SDS011;13384;24.794;110.498;2023-02-12T08:15:08;39.88;;;24.20;;
25467;SDS011;13384;24.794;110.498;2023-02-12T08:17:42;36.13;;;23.38;;
25467;SDS011;13384;24.794;110.498;2023-02-12T08:20:15;48.65;;;27.48;;
25467;SDS011;13384;24.794;110.498;2023-02-12T08:22:46;53.92;;;29.95;;
25467;SDS011;13384;24.794;110.498;2023-02-12T08:25:17;59.15;;;30.85;;
25467;SDS011;13384;24.794;110.498;2023-02-12T08:27:48;65.13;;;33.60;;
25467;SDS011;13384;24.794;110.498;2023-02-12T08:30:37;84.40;;;38.83;;
25467;SDS011;13384;24.794;110.498;2023-02-12T08:33:08;73.28;;;35.08;;
25467;SDS011;13384;24.794;110.498;2023-02-12T08:36:01;82.05;;;37.03;;
25467;SDS011;13384;24.794;110.498;2023-02-12T08:38:43;85.80;;;40.80;;
25467;SDS011;13384;24.794;110.498;2023-02-12T08:41:36;81.95;;;39.40;;
25467;SDS011;13384;24.794;110.498;2023-02-12T08:44:27;90.68;;;39.03;;
25467;SDS011;13384;24.794;110.498;2023-02-12T08:46:58;83.65;;;37.38;;
25467;SDS011;13384;24.794;110.498;2023-02-12T08:49:31;84.80;;;37.78;;
25467;SDS011;13384;24.794;110.498;2023-02-12T08:52:05;89.35;;;40.53;;
25467;SDS011;13384;24.794;110.498;2023-02-12T08:54:41;93.60;;;41.75;;
25467;SDS011;13384;24.794;110.498;2023-02-12T08:57:49;89.63;;;40.05;;
25467;SDS011;13384;24.794;110.498;2023-02-12T09:00:22;92.43;;;41.85;;
25467;SDS011;13384;24.794;110.498;2023-02-12T09:03:00;97.57;;;42.40;;
25467;SDS011;13384;24.794;110.498;2023-02-12T09:05:31;96.60;;;41.05;;
25467;SDS011;13384;24.794;110.498;2023-02-12T09:08:03;100.85;;;43.30;;
25467;SDS011;13384;24.794;110.498;2023-02-12T09:10:38;114.43;;;45.15;;
25467;SDS011;13384;24.794;110.498;2023-02-12T09:13:12;109.40;;;46.50;;
25467;SDS011;13384;24.794;110.498;2023-02-12T09:16:15;106.75;;;45.33;;
25467;SDS011;13384;24.794;110.498;2023-02-12T09:18:46;112.10;;;46.13;;
25467;SDS011;13384;24.794;110.498;2023-02-12T09:21:17;101.55;;;44.92;;
25467;SDS011;13384;24.794;110.498;2023-02-12T09:24:02;109.50;;;44.80;;
25467;SDS011;13384;24.794;110.498;2023-02-12T09:26:53;93.40;;;39.35;;
25467;SDS011;13384;24.794;110.498;2023-02-12T09:29:26;96.43;;;42.30;;
25467;SDS011;13384;24.794;110.498;2023-02-12T09:32:02;96.28;;;40.38;;
25467;SDS011;13384;24.794;110.498;2023-02-12T09:34:35;99.60;;;42.60;;
25467;SDS011;13384;24.794;110.498;2023-02-12T09:37:06;152.10;;;62.70;;
25467;SDS011;13384;24.794;110.498;2023-02-12T09:39:37;121.00;;;46.08;;
25467;SDS011;13384;24.794;110.498;2023-02-12T09:42:25;344.35;;;228.05;;
25467;SDS011;13384;24.794;110.498;2023-02-12T09:45:38;197.68;;;116.93;;
25467;SDS011;13384;24.794;110.498;2023-02-12T09:51:16;147.18;;;53.22;;
25467;SDS011;13384;24.794;110.498;2023-02-12T09:53:47;133.20;;;47.78;;
25467;SDS011;13384;24.794;110.498;2023-02-12T09:56:39;206.27;;;115.05;;
25467;SDS011;13384;24.794;110.498;2023-02-12T09:59:34;106.35;;;42.72;;
25467;SDS011;13384;24.794;110.498;2023-02-12T10:02:33;129.75;;;58.10;;
25467;SDS011;13384;24.794;110.498;2023-02-12T10:05:22;97.38;;;42.55;;
25467;SDS011;13384;24.794;110.498;2023-02-12T10:22:54;93.80;;;40.33;;
25467;SDS011;13384;24.794;110.498;2023-02-12T10:26:00;98.03;;;37.80;;
25467;SDS011;13384;24.794;110.498;2023-02-12T10:28:36;92.95;;;40.33;;
25467;SDS011;13384;24.794;110.498;2023-02-12T10:34:16;88.78;;;36.70;;
25467;SDS011;13384;24.794;110.498;2023-02-12T10:37:20;86.35;;;37.28;;
25467;SDS011;13384;24.794;110.498;2023-02-12T10:43:02;90.28;;;37.33;;
25467;SDS011;13384;24.794;110.498;2023-02-12T10:45:36;77.90;;;33.78;;
25467;SDS011;13384;24.794;110.498;2023-02-12T10:53:40;72.90;;;32.63;;
25467;SDS011;13384;24.794;110.498;2023-02-12T10:56:34;82.40;;;34.45;;
25467;SDS011;13384;24.794;110.498;2023-02-12T10:59:09;79.03;;;34.78;;
25467;SDS011;13384;24.794;110.498;2023-02-12T11:01:52;91.70;;;34.22;;
25467;SDS011;13384;24.794;110.498;2023-02-12T11:04:36;83.00;;;35.72;;
25467;SDS011;13384;24.794;110.498;2023-02-12T11:07:31;81.32;;;34.88;;
25467;SDS011;13384;24.794;110.498;2023-02-12T11:10:28;81.50;;;34.22;;
25467;SDS011;13384;24.794;110.498;2023-02-12T11:13:02;68.03;;;34.00;;
25467;SDS011;13384;24.794;110.498;2023-02-12T11:15:46;77.28;;;31.65;;
25467;SDS011;13384;24.794;110.498;2023-02-12T11:18:22;71.60;;;30.95;;
25467;SDS011;13384;24.794;110.498;2023-02-12T11:20:56;69.20;;;30.80;;
25467;SDS011;13384;24.794;110.498;2023-02-12T11:24:41;79.70;;;33.42;;
25467;SDS011;13384;24.794;110.498;2023-02-12T11:27:19;70.38;;;34.00;;
25467;SDS011;13384;24.794;110.498;2023-02-12T11:32:51;72.65;;;34.78;;
25467;SDS011;13384;24.794;110.498;2023-02-12T11:35:24;73.38;;;33.58;;
25467;SDS011;13384;24.794;110.498;2023-02-12T11:38:05;75.40;;;34.53;;
25467;SDS011;13384;24.794;110.498;2023-02-12T11:40:50;69.78;;;33.40;;
25467;SDS011;13384;24.794;110.498;2023-02-12T11:43:46;74.03;;;34.15;;
25467;SDS011;13384;24.794;110.498;2023-02-12T11:48:54;64.03;;;31.08;;
25467;SDS011;13384;24.794;110.498;2023-02-12T11:51:27;67.57;;;31.95;;
25467;SDS011;13384;24.794;110.498;2023-02-12T11:54:03;57.35;;;30.70;;
25467;SDS011;13384;24.794;110.498;2023-02-12T11:56:44;64.03;;;29.80;;
25467;SDS011;13384;24.794;110.498;2023-02-12T11:59:34;62.78;;;30.05;;
25467;SDS011;13384;24.794;110.498;2023-02-12T12:05:12;59.47;;;28.70;;
25467;SDS011;13384;24.794;110.498;2023-02-12T12:07:51;57.78;;;28.27;;
25467;SDS011;13384;24.794;110.498;2023-02-12T12:13:13;61.53;;;29.20;;
25467;SDS011;13384;24.794;110.498;2023-02-12T12:16:10;55.80;;;28.73;;
25467;SDS011;13384;24.794;110.498;2023-02-12T12:19:15;55.92;;;26.95;;
25467;SDS011;13384;24.794;110.498;2023-02-12T12:24:56;57.08;;;28.27;;
25467;SDS011;13384;24.794;110.498;2023-02-12T12:28:12;53.95;;;27.38;;
25467;SDS011;13384;24.794;110.498;2023-02-12T12:53:51;41.85;;;21.33;;
25467;SDS011;13384;24.794;110.498;2023-02-12T13:10:14;38.17;;;21.05;;
25467;SDS011;13384;24.794;110.498;2023-02-12T13:24:37;40.80;;;20.73;;
25467;SDS011;13384;24.794;110.498;2023-02-12T13:27:45;30.83;;;16.98;;
25467;SDS011;13384;24.794;110.498;2023-02-12T13:36:40;27.00;;;16.00;;
25467;SDS011;13384;24.794;110.498;2023-02-12T13:39:39;28.38;;;15.25;;
25467;SDS011;13384;24.794;110.498;2023-02-12T13:50:51;27.20;;;15.68;;
25467;SDS011;13384;24.794;110.498;2023-02-12T13:56:59;29.52;;;16.98;;
25467;SDS011;13384;24.794;110.498;2023-02-12T14:02:05;28.88;;;16.85;;
25467;SDS011;13384;24.794;110.498;2023-02-12T14:05:25;28.02;;;16.67;;
25467;SDS011;13384;24.794;110.498;2023-02-12T14:08:20;28.17;;;15.43;;
25467;SDS011;13384;24.794;110.498;2023-02-12T14:11:07;26.02;;;14.88;;
25467;SDS011;13384;24.794;110.498;2023-02-12T14:14:04;24.33;;;14.85;;
25467;SDS011;13384;24.794;110.498;2023-02-12T14:16:41;25.98;;;14.75;;
25467;SDS011;13384;24.794;110.498;2023-02-12T14:19:37;24.75;;;14.52;;
25467;SDS011;13384;24.794;110.498;2023-02-12T14:22:10;23.85;;;14.40;;
25467;SDS011;13384;24.794;110.498;2023-02-12T14:36:40;27.00;;;14.07;;
25467;SDS011;13384;24.794;110.498;2023-02-12T14:44:47;29.27;;;15.02;;
25467;SDS011;13384;24.794;110.498;2023-02-12T14:50:16;23.42;;;13.10;;
25467;SDS011;13384;24.794;110.498;2023-02-12T14:53:28;28.02;;;15.55;;
25467;SDS011;13384;24.794;110.498;2023-02-12T14:56:04;20.45;;;12.98;;
25467;SDS011;13384;24.794;110.498;2023-02-12T14:58:38;20.77;;;12.98;;
25467;SDS011;13384;24.794;110.498;2023-02-12T15:01:44;23.25;;;12.30;;
25467;SDS011;13384;24.794;110.498;2023-02-12T15:04:27;24.88;;;13.05;;
25467;SDS011;13384;24.794;110.498;2023-02-12T15:07:07;22.10;;;12.98;;
25467;SDS011;13384;24.794;110.498;2023-02-12T15:09:44;21.23;;;11.52;;
25467;SDS011;13384;24.794;110.498;2023-02-12T15:12:26;22.17;;;11.82;;
25467;SDS011;13384;24.794;110.498;2023-02-12T15:15:05;18.88;;;10.98;;
25467;SDS011;13384;24.794;110.498;2023-02-12T15:17:50;18.02;;;11.23;;
25467;SDS011;13384;24.794;110.498;2023-02-12T15:20:56;19.73;;;10.98;;
25467;SDS011;13384;24.794;110.498;2023-02-12T15:23:40;22.60;;;11.27;;
25467;SDS011;13384;24.794;110.498;2023-02-12T15:26:17;19.23;;;11.50;;
25467;SDS011;13384;24.794;110.498;2023-02-12T15:28:54;18.40;;;10.68;;
25467;SDS011;13384;24.794;110.498;2023-02-12T15:31:49;19.45;;;10.93;;
25467;SDS011;13384;24.794;110.498;2023-02-12T15:34:31;18.27;;;10.95;;
25467;SDS011;13384;24.794;110.498;2023-02-12T15:37:34;20.80;;;11.13;;
25467;SDS011;13384;24.794;110.498;2023-02-12T15:40:51;17.85;;;10.77;;
25467;SDS011;13384;24.794;110.498;2023-02-12T15:43:33;19.77;;;10.97;;
25467;SDS011;13384;24.794;110.498;2023-02-12T15:46:14;17.48;;;10.07;;
25467;SDS011;13384;24.794;110.498;2023-02-12T15:49:19;18.95;;;10.30;;
25467;SDS011;13384;24.794;110.498;2023-02-12T15:51:53;20.00;;;10.65;;
25467;SDS011;13384;24.794;110.498;2023-02-12T15:54:45;18.20;;;9.88;;
25467;SDS011;13384;24.794;110.498;2023-02-12T15:57:21;16.67;;;9.82;;
25467;SDS011;13384;24.794;110.498;2023-02-12T16:00:07;18.02;;;9.20;;
25467;SDS011;13384;24.794;110.498;2023-02-12T16:03:26;17.00;;;9.35;;
25467;SDS011;13384;24.794;110.498;2023-02-12T16:06:38;18.30;;;10.05;;
25467;SDS011;13384;24.794;110.498;2023-02-12T16:09:44;16.55;;;9.80;;
25467;SDS011;13384;24.794;110.498;2023-02-12T16:12:28;15.43;;;9.18;;
25467;SDS011;13384;24.794;110.498;2023-02-12T16:15:03;18.52;;;9.88;;
25467;SDS011;13384;24.794;110.498;2023-02-12T16:17:35;15.05;;;9.40;;
25467;SDS011;13384;24.794;110.498;2023-02-12T16:22:48;14.18;;;8.45;;
25467;SDS011;13384;24.794;110.498;2023-02-12T16:28:03;15.15;;;8.48;;
25467;SDS011;13384;24.794;110.498;2023-02-12T16:31:06;16.60;;;8.50;;
25467;SDS011;13384;24.794;110.498;2023-02-12T16:33:45;11.70;;;7.30;;
25467;SDS011;13384;24.794;110.498;2023-02-12T16:36:44;15.23;;;8.48;;
25467;SDS011;13384;24.794;110.498;2023-02-12T16:50:46;11.35;;;7.45;;
25467;SDS011;13384;24.794;110.498;2023-02-12T16:53:42;11.07;;;7.43;;
25467;SDS011;13384;24.794;110.498;2023-02-12T16:56:16;14.00;;;7.72;;
25467;SDS011;13384;24.794;110.498;2023-02-12T16:58:50;12.02;;;7.43;;
25467;SDS011;13384;24.794;110.498;2023-02-12T17:01:25;12.30;;;6.82;;
25467;SDS011;13384;24.794;110.498;2023-02-12T17:04:12;10.48;;;6.68;;
25467;SDS011;13384;24.794;110.498;2023-02-12T17:06:45;10.40;;;6.60;;
25467;SDS011;13384;24.794;110.498;2023-02-12T17:09:16;13.35;;;7.13;;
25467;SDS011;13384;24.794;110.498;2023-02-12T17:11:48;11.50;;;7.03;;
25467;SDS011;13384;24.794;110.498;2023-02-12T17:14:33;9.90;;;6.45;;
25467;SDS011;13384;24.794;110.498;2023-02-12T17:17:08;11.57;;;7.18;;
25467;SDS011;13384;24.794;110.498;2023-02-12T17:19:45;11.43;;;6.15;;
25467;SDS011;13384;24.794;110.498;2023-02-12T17:22:21;9.80;;;5.85;;
25467;SDS011;13384;24.794;110.498;2023-02-12T17:24:55;10.18;;;5.90;;
25467;SDS011;13384;24.794;110.498;2023-02-12T17:27:32;11.65;;;6.30;;
25467;SDS011;13384;24.794;110.498;2023-02-12T17:30:05;11.33;;;6.20;;
25467;SDS011;13384;24.794;110.498;2023-02-12T17:33:00;8.73;;;5.90;;
25467;SDS011;13384;24.794;110.498;2023-02-12T17:35:33;8.68;;;5.88;;
25467;SDS011;13384;24.794;110.498;2023-02-12T17:38:25;10.15;;;5.82;;
25467;SDS011;13384;24.794;110.498;2023-02-12T17:41:09;8.52;;;5.93;;
25467;SDS011;13384;24.794;110.498;2023-02-12T17:43:44;9.77;;;5.82;;
25467;SDS011;13384;24.794;110.498;2023-02-12T17:46:21;8.30;;;5.18;;
25467;SDS011;13384;24.794;110.498;2023-02-12T17:48:54;9.23;;;5.35;;
25467;SDS011;13384;24.794;110.498;2023-02-12T17:51:26;9.68;;;4.85;;
25467;SDS011;13384;24.794;110.498;2023-02-12T17:53:57;9.35;;;5.95;;
25467;SDS011;13384;24.794;110.498;2023-02-12T17:56:40;7.45;;;4.65;;
25467;SDS011;13384;24.794;110.498;2023-02-12T17:59:12;8.98;;;4.78;;
25467;SDS011;13384;24.794;110.498;2023-02-12T18:01:43;7.95;;;4.80;;
25467;SDS011;13384;24.794;110.498;2023-02-12T18:04:40;9.60;;;5.03;;
25467;SDS011;13384;24.794;110.498;2023-02-12T18:07:12;9.07;;;4.95;;
25467;SDS011;13384;24.794;110.498;2023-02-12T18:10:26;9.68;;;4.50;;
25467;SDS011;13384;24.794;110.498;2023-02-12T18:12:58;8.15;;;4.72;;
25467;SDS011;13384;24.794;110.498;2023-02-12T18:15:30;7.30;;;4.70;;
25467;SDS011;13384;24.794;110.498;2023-02-12T18:18:01;6.70;;;4.40;;
25467;SDS011;13384;24.794;110.498;2023-02-12T18:20:45;8.52;;;4.47;;
25467;SDS011;13384;24.794;110.498;2023-02-12T18:23:24;7.78;;;4.35;;
25467;SDS011;13384;24.794;110.498;2023-02-12T18:25:58;6.60;;;4.32;;
25467;SDS011;13384;24.794;110.498;2023-02-12T18:28:49;7.47;;;4.38;;
25467;SDS011;13384;24.794;110.498;2023-02-12T18:31:22;8.38;;;3.75;;
25467;SDS011;13384;24.794;110.498;2023-02-12T18:33:57;6.75;;;3.92;;
25467;SDS011;13384;24.794;110.498;2023-02-12T18:36:38;4.95;;;3.63;;
25467;SDS011;13384;24.794;110.498;2023-02-12T18:39:09;7.78;;;4.05;;
25467;SDS011;13384;24.794;110.498;2023-02-12T18:41:40;6.40;;;3.85;;
25467;SDS011;13384;24.794;110.498;2023-02-12T18:44:11;7.90;;;4.53;;
25467;SDS011;13384;24.794;110.498;2023-02-12T18:46:51;6.88;;;3.70;;
25467;SDS011;13384;24.794;110.498;2023-02-12T18:49:50;5.25;;;3.53;;
25467;SDS011;13384;24.794;110.498;2023-02-12T18:52:22;6.43;;;4.10;;
25467;SDS011;13384;24.794;110.498;2023-02-12T18:54:59;4.97;;;3.38;;
25467;SDS011;13384;24.794;110.498;2023-02-12T18:58:53;5.22;;;3.60;;